West Melbourne, Florida
Current Conditions -  °F | °C
As of 12:53 AM on Monday 20 Oct 2014 (Local Time) from KMLB Reporting Station
Clear Clear  
Wind Chill: 70°   Ceiling: Unl
Heat Index: 70°   Visibility: 10mi
Dew Point: 67°   Wind: 3mph
Humidity: 90%   Direction: 290°WNW
Pressure: 30.04"   Gusts: NA
Location:  28.0786°N, 80.6027°W
Report Text: KMLB 200453Z AUTO 29003KT 10SM CLR 21/19 A3004 RMK AO2 SLP170 T02110194 402890161
Loading
Personal Weather Stations






























Interactive Weather Map
Tropical Storm Tracking
New forecast layout! Learn more

10-Day Weather Forecast

Advertisements
Track Severe Weather on mobile